Time;durP1;ratioP1;P1;durP2;ratioP2;P2;SDS_P1;SDS_P2;PMS_P1;PMS_P2;Temp;Humidity;BMP_temperature;BMP_pressure;BME280_temperature;BME280_humidity;BME280_pressure;Samples;Min_cycle;Max_cycle;Signal;HPM_P1;HPM_P2
2023/12/03 00:00:27;;;;;;;15.68;2.83;;;;;;;14.23;38.69;92922.88;4887073;29;20061;-78
2023/12/03 00:02:53;;;;;;;21.35;4.97;;;;;;;14.11;38.65;92921.94;4882785;29;20048;-77
2023/12/03 00:05:19;;;;;;;12.90;2.42;;;;;;;13.92;39.24;92915.84;4886047;29;20457;-79
2023/12/03 00:07:45;;;;;;;15.23;2.67;;;;;;;13.95;39.61;92909.78;4882742;29;20335;-78
2023/12/03 00:10:11;;;;;;;12.50;2.70;;;;;;;13.90;39.95;92947.50;4879479;29;20060;-78
2023/12/03 00:12:38;;;;;;;13.50;2.63;;;;;;;13.96;39.81;92936.16;4876780;29;20144;-80
2023/12/03 00:15:05;;;;;;;19.50;4.32;;;;;;;13.91;39.92;92951.72;4886176;29;20037;-78
2023/12/03 00:17:31;;;;;;;15.05;4.10;;;;;;;13.93;39.94;92954.81;4888011;29;20492;-79
2023/12/03 00:19:56;;;;;;;17.20;3.83;;;;;;;13.68;40.24;92944.44;4899513;29;20035;-78
2023/12/03 00:22:22;;;;;;;21.48;4.00;;;;;;;13.87;40.74;92965.03;4886348;29;20119;-78
2023/12/03 00:24:48;;;;;;;15.27;2.75;;;;;;;13.79;40.47;92955.31;4882391;29;20049;-79
2023/12/03 00:27:13;;;;;;;18.23;4.00;;;;;;;13.66;40.70;92954.69;4886193;29;20033;-78
2023/12/03 00:29:39;;;;;;;19.45;2.83;;;;;;;13.81;40.31;92965.66;4881685;29;20032;-80
2023/12/03 00:32:05;;;;;;;16.70;2.78;;;;;;;13.81;40.56;92976.34;4887072;29;20690;-79
2023/12/03 00:34:31;;;;;;;16.70;2.60;;;;;;;13.69;40.88;92948.63;4883825;29;20027;-79
2023/12/03 00:36:56;;;;;;;14.38;3.67;;;;;;;13.73;40.58;92946.06;4885305;29;20070;-79
2023/12/03 00:39:22;;;;;;;13.10;2.45;;;;;;;13.72;40.77;92945.28;4882944;29;20042;-79
2023/12/03 00:41:47;;;;;;;10.82;2.30;;;;;;;13.74;40.50;92979.66;4881413;29;20632;-78
2023/12/03 00:44:13;;;;;;;15.23;4.57;;;;;;;13.68;40.63;92954.34;4881367;29;20040;-79
2023/12/03 00:46:38;;;;;;;17.27;2.78;;;;;;;13.66;40.58;92946.69;4887242;29;20031;-79
2023/12/03 00:49:04;;;;;;;14.50;2.97;;;;;;;13.77;41.00;92988.88;4879961;29;20169;-78
2023/12/03 00:51:29;;;;;;;26.75;4.28;;;;;;;13.58;41.54;92977.03;4882290;29;20083;-78
2023/12/03 00:53:55;;;;;;;14.07;2.45;;;;;;;13.67;41.11;92977.63;4884587;29;20029;-79
2023/12/03 00:56:20;;;;;;;21.98;3.53;;;;;;;13.66;40.97;92972.63;4884368;29;20043;-77
2023/12/03 00:58:46;;;;;;;22.58;3.47;;;;;;;13.79;40.96;92991.97;4883396;29;20024;-78
2023/12/03 01:01:11;;;;;;;19.00;3.40;;;;;;;13.75;41.01;92981.97;4885745;29;20056;-79
2023/12/03 01:03:36;;;;;;;19.00;3.85;;;;;;;13.82;41.09;92991.25;4883507;29;20159;-78
2023/12/03 01:06:02;;;;;;;21.13;3.88;;;;;;;13.85;41.30;92990.53;4887830;29;20100;-77
2023/12/03 01:08:27;;;;;;;14.38;2.38;;;;;;;13.76;41.00;92985.41;4883779;29;20163;-78
2023/12/03 01:10:53;;;;;;;12.45;2.50;;;;;;;13.91;41.01;93000.59;4881608;29;20556;-78
2023/12/03 01:13:19;;;;;;;18.80;2.42;;;;;;;13.92;41.30;92993.38;4884652;29;20062;-78
2023/12/03 01:15:44;;;;;;;18.30;2.78;;;;;;;13.61;41.38;92972.91;4881137;29;20040;-78
2023/12/03 01:18:11;;;;;;;13.00;2.33;;;;;;;14.01;41.11;93004.59;4885351;29;20080;-79
2023/12/03 01:20:37;;;;;;;11.60;2.35;;;;;;;14.14;40.83;93006.00;4895184;29;20040;-79
2023/12/03 01:23:03;;;;;;;24.52;3.92;;;;;;;14.14;40.67;93000.66;4885643;29;20068;-79
2023/12/03 01:25:28;;;;;;;14.25;3.17;;;;;;;14.19;40.55;92989.66;4884231;29;20025;-78
2023/12/03 01:27:54;;;;;;;14.77;3.00;;;;;;;14.11;40.96;93004.81;4885765;29;20041;-77
2023/12/03 01:30:19;;;;;;;14.10;2.53;;;;;;;14.06;40.91;92991.72;4883160;29;20791;-78
2023/12/03 01:32:44;;;;;;;19.52;2.72;;;;;;;14.03;40.56;92997.03;4885196;29;20029;-79
2023/12/03 01:35:10;;;;;;;12.30;3.55;;;;;;;13.95;41.08;92982.72;4882172;29;20049;-79
2023/12/03 01:37:35;;;;;;;14.23;4.85;;;;;;;14.00;41.05;93000.38;4898842;29;20047;-77
2023/12/03 01:40:01;;;;;;;12.55;2.75;;;;;;;14.10;41.27;93003.25;4885355;29;20029;-78
2023/12/03 01:42:27;;;;;;;16.23;3.15;;;;;;;13.89;40.88;92981.47;4883411;29;20096;-80
2023/12/03 01:44:53;;;;;;;13.98;3.13;;;;;;;14.22;41.29;93014.94;4883341;29;20321;-78
2023/12/03 01:47:20;;;;;;;31.70;4.30;;;;;;;14.15;41.17;93004.88;4891385;29;20050;-78
2023/12/03 01:49:47;;;;;;;21.75;3.17;;;;;;;13.98;41.37;92986.63;4882108;29;20032;-78
2023/12/03 01:52:14;;;;;;;14.40;2.67;;;;;;;13.97;41.42;93001.09;4885678;29;20560;-77
2023/12/03 01:54:43;;;;;;;25.98;3.53;;;;;;;14.02;41.26;92995.47;4887412;29;20052;-78
2023/12/03 01:57:08;;;;;;;13.02;3.88;;;;;;;14.06;41.39;92991.72;4884431;29;20037;-79
2023/12/03 01:59:35;;;;;;;14.88;2.40;;;;;;;14.12;41.09;93001.03;4897507;29;20041;-78
2023/12/03 02:02:00;;;;;;;14.90;2.10;;;;;;;13.92;41.13;92977.34;4848650;29;20156;-78
2023/12/03 02:04:26;;;;;;;9.95;2.30;;;;;;;14.19;40.94;93001.13;4852492;29;20400;-78
2023/12/03 02:06:51;;;;;;;15.50;2.33;;;;;;;14.20;40.79;93012.59;4845914;29;20030;-79
2023/12/03 02:09:19;;;;;;;15.82;2.90;;;;;;;14.06;41.01;93007.00;4845697;29;20846;-79
2023/12/03 02:11:45;;;;;;;13.73;2.53;;;;;;;14.02;41.17;92990.13;4852176;29;20128;-78
2023/12/03 02:14:11;;;;;;;10.95;2.42;;;;;;;14.09;41.30;93000.94;4850983;29;20048;-78
2023/12/03 02:16:36;;;;;;;19.58;2.25;;;;;;;14.13;40.80;92975.06;4849730;29;20025;-78
2023/12/03 02:19:02;;;;;;;18.00;3.55;;;;;;;14.29;40.81;92994.44;4849162;29;20045;-77
2023/12/03 02:21:28;;;;;;;12.93;2.00;;;;;;;14.20;40.50;92980.50;4846889;29;20037;-78
2023/12/03 02:23:54;;;;;;;10.27;2.90;;;;;;;14.24;40.64;92976.00;4850910;29;20049;-78
2023/12/03 02:26:19;;;;;;;20.73;3.25;;;;;;;14.23;40.40;92974.44;4848850;29;20040;-79
2023/12/03 02:28:45;;;;;;;14.40;2.50;;;;;;;14.09;40.79;93008.94;4852356;29;20074;-79
2023/12/03 02:31:10;;;;;;;17.52;3.00;;;;;;;14.13;40.77;92994.53;4847787;29;20025;-79
2023/12/03 02:33:36;;;;;;;12.57;2.55;;;;;;;14.24;40.62;92996.63;4849874;29;20060;-78
2023/12/03 02:36:02;;;;;;;15.35;1.92;;;;;;;14.17;40.53;92989.25;4850365;29;20482;-78
2023/12/03 02:38:27;;;;;;;20.48;3.30;;;;;;;14.25;40.42;92988.25;4852147;29;20053;-78
2023/12/03 02:40:56;;;;;;;14.90;3.42;;;;;;;14.33;41.05;92989.91;4831155;29;20029;-78
2023/12/03 02:43:22;;;;;;;18.20;3.60;;;;;;;14.28;40.32;92976.81;4853564;29;20111;-79
2023/12/03 02:45:47;;;;;;;18.50;3.53;;;;;;;14.29;40.53;92983.72;4843716;29;20524;-79
2023/12/03 02:48:13;;;;;;;20.15;2.88;;;;;;;14.32;40.28;92983.03;4839388;29;20061;-79
2023/12/03 02:50:38;;;;;;;13.48;2.45;;;;;;;14.34;40.48;92986.13;4850036;29;20038;-79
2023/12/03 02:53:04;;;;;;;14.48;2.85;;;;;;;14.43;40.46;92992.00;4850253;29;21413;-79
2023/12/03 02:55:29;;;;;;;11.32;2.83;;;;;;;14.43;40.40;92981.28;4849832;29;20026;-78
2023/12/03 02:57:55;;;;;;;19.88;3.22;;;;;;;14.43;40.43;92981.28;4849059;29;20707;-77
2023/12/03 03:00:20;;;;;;;16.92;3.22;;;;;;;14.47;40.09;92990.16;4861379;29;20053;-78
2023/12/03 03:02:46;;;;;;;17.92;3.10;;;;;;;14.66;40.29;93002.75;4887841;29;20564;-78
2023/12/03 03:05:11;;;;;;;12.07;2.60;;;;;;;14.64;39.96;93007.66;4896245;29;20048;-79
2023/12/03 03:07:37;;;;;;;20.08;3.25;;;;;;;14.19;40.72;92977.06;4896438;29;20041;-79
2023/12/03 03:10:02;;;;;;;11.85;2.47;;;;;;;14.43;40.75;92975.16;4900478;29;20036;-78
2023/12/03 03:12:28;;;;;;;13.55;2.75;;;;;;;14.49;40.67;92998.59;4895319;29;20037;-79
2023/12/03 03:14:53;;;;;;;21.95;4.57;;;;;;;14.53;40.75;93010.16;4888928;29;20049;-78
2023/12/03 03:17:19;;;;;;;21.17;4.68;;;;;;;14.57;40.81;93004.88;4893651;29;20508;-78
2023/12/03 03:19:44;;;;;;;22.50;2.90;;;;;;;14.68;40.58;93015.75;4891265;29;20033;-78
2023/12/03 03:22:13;;;;;;;21.17;3.25;;;;;;;14.60;40.46;93015.66;4885081;29;20080;-78
2023/12/03 03:24:40;;;;;;;13.35;2.83;;;;;;;14.47;40.96;93006.19;4887613;29;20047;-79
2023/12/03 03:27:05;;;;;;;12.35;2.75;;;;;;;14.40;40.76;92990.03;4887474;29;20068;-76
2023/12/03 03:29:32;;;;;;;15.68;3.35;;;;;;;14.33;41.28;93003.28;4890977;29;20657;-79
2023/12/03 03:31:57;;;;;;;9.52;2.08;;;;;;;14.60;41.20;92999.59;4893962;29;20024;-78
2023/12/03 03:34:23;;;;;;;11.68;3.25;;;;;;;14.36;41.22;92991.13;4898952;29;20273;-78
2023/12/03 03:36:48;;;;;;;17.30;2.78;;;;;;;14.32;41.57;93015.13;4894719;29;20123;-78
2023/12/03 03:39:14;;;;;;;17.00;2.80;;;;;;;14.58;41.29;93006.41;4896734;29;20040;-80
2023/12/03 03:41:39;;;;;;;16.05;2.70;;;;;;;14.64;40.59;93020.28;4894147;29;20064;-78
2023/12/03 03:44:05;;;;;;;13.10;2.00;;;;;;;14.87;40.75;93031.75;4897629;29;20364;-79
2023/12/03 03:46:31;;;;;;;22.10;4.00;;;;;;;14.51;40.94;93041.84;4894445;29;20025;-79
2023/12/03 03:48:56;;;;;;;13.07;2.50;;;;;;;14.51;41.29;93052.53;4888558;29;20106;-78
2023/12/03 03:51:22;;;;;;;20.42;3.78;;;;;;;14.36;41.85;93025.88;4885598;29;20044;-79
2023/12/03 03:53:47;;;;;;;18.33;2.60;;;;;;;14.53;42.04;93042.28;4886389;29;20048;-79
2023/12/03 03:56:15;;;;;;;20.55;3.63;;;;;;;14.54;41.14;93059.09;4884242;29;20046;-78
2023/12/03 03:58:41;;;;;;;16.13;2.58;;;;;;;14.45;41.56;93067.34;4886716;29;20052;-77
2023/12/03 04:01:07;;;;;;;16.17;4.47;;;;;;;13.47;42.69;93029.47;4888399;29;20196;-78
2023/12/03 04:03:33;;;;;;;17.00;3.47;;;;;;;13.22;43.77;93044.16;4885249;29;21183;-79
2023/12/03 04:06:06;;;;;;;24.77;3.63;;;;;;;13.00;44.64;93058.94;4889487;29;20028;-78
2023/12/03 04:08:32;;;;;;;37.65;5.88;;;;;;;13.05;45.03;93071.25;4883518;29;20133;-77
2023/12/03 04:11:02;;;;;;;21.10;4.30;;;;;;;12.83;46.22;93092.06;4886107;29;20132;-78
2023/12/03 04:13:27;;;;;;;23.95;4.30;;;;;;;11.91;48.70;93086.94;4884597;29;20123;-78
2023/12/03 04:15:53;;;;;;;20.83;4.20;;;;;;;12.26;48.10;93116.47;4900291;29;20058;-79
2023/12/03 04:18:18;;;;;;;22.17;3.83;;;;;;;12.64;47.14;93110.63;4897598;29;20143;-78
2023/12/03 04:20:44;;;;;;;14.32;3.28;;;;;;;12.00;48.56;93103.56;4882561;29;20420;-79
2023/12/03 04:23:09;;;;;;;13.55;3.85;;;;;;;12.50;47.43;93115.56;4885788;29;20045;-78
2023/12/03 04:25:35;;;;;;;18.88;5.70;;;;;;;12.36;47.70;93101.88;4884409;29;20043;-79
2023/12/03 04:28:01;;;;;;;22.40;4.30;;;;;;;12.51;47.76;93133.13;4887818;29;20036;-78
2023/12/03 04:30:27;;;;;;;12.63;3.28;;;;;;;12.91;46.69;93148.28;4882092;29;20045;-78
2023/12/03 04:32:52;;;;;;;22.85;3.85;;;;;;;13.32;46.20;93150.44;4883476;29;20043;-78
2023/12/03 04:35:17;;;;;;;14.77;4.00;;;;;;;13.37;45.79;93112.78;4898383;29;20214;-78
2023/12/03 04:37:43;;;;;;;20.13;2.92;;;;;;;13.72;44.94;93148.34;4887758;29;20531;-79
2023/12/03 04:40:09;;;;;;;19.08;3.80;;;;;;;13.55;45.79;93158.59;4886208;29;20888;-77
2023/12/03 04:42:35;;;;;;;20.38;4.47;;;;;;;13.69;45.36;93149.03;4899407;29;20076;-79
2023/12/03 04:45:01;;;;;;;14.43;3.53;;;;;;;13.95;44.96;93159.16;4886215;29;20036;-79
2023/12/03 04:47:26;;;;;;;17.42;4.03;;;;;;;14.16;44.39;93169.53;4888158;29;20088;-78
2023/12/03 04:49:52;;;;;;;14.70;2.90;;;;;;;14.03;44.48;93160.09;4882923;29;20020;-78
2023/12/03 04:52:17;;;;;;;12.15;3.28;;;;;;;14.20;44.44;93181.06;4886944;29;20437;-78
2023/12/03 04:54:42;;;;;;;20.02;3.92;;;;;;;14.00;44.17;93179.50;4886931;29;20072;-78
2023/12/03 04:57:08;;;;;;;22.70;6.20;;;;;;;14.02;44.62;93193.31;4881188;29;20452;-78
2023/12/03 04:59:33;;;;;;;20.38;3.50;;;;;;;13.74;45.54;93194.19;4883824;29;20055;-79
2023/12/03 05:01:59;;;;;;;13.93;3.53;;;;;;;13.51;46.56;93198.59;4886576;29;20366;-78
2023/12/03 05:04:26;;;;;;;15.38;3.90;;;;;;;13.51;47.18;93227.97;4882700;29;20028;-77
2023/12/03 05:06:52;;;;;;;14.55;2.92;;;;;;;12.94;49.09;93214.31;4885003;29;20024;-78
2023/12/03 05:09:18;;;;;;;18.30;4.72;;;;;;;12.45;50.99;93230.50;4886179;29;20047;-78
2023/12/03 05:11:44;;;;;;;11.70;3.88;;;;;;;12.44;51.48;93239.59;4885127;29;20050;-77
2023/12/03 05:14:11;;;;;;;12.10;3.70;;;;;;;12.46;52.31;93242.72;4885667;29;20037;-77
2023/12/03 05:16:37;;;;;;;17.13;3.22;;;;;;;12.50;52.45;93259.59;4888247;29;20447;-79
2023/12/03 05:19:03;;;;;;;20.67;5.22;;;;;;;12.25;52.60;93269.53;4883723;29;20040;-78
2023/12/03 05:21:28;;;;;;;17.10;3.22;;;;;;;12.15;52.60;93248.66;4885558;29;20151;-78
2023/12/03 05:23:54;;;;;;;11.63;3.15;;;;;;;12.34;52.47;93254.19;4900636;29;20048;-79
2023/12/03 05:26:19;;;;;;;16.10;2.50;;;;;;;12.45;51.75;93241.16;4884497;29;20040;-77
2023/12/03 05:28:45;;;;;;;8.43;2.25;;;;;;;12.39;51.97;93221.94;4886224;29;20395;-79
2023/12/03 05:31:10;;;;;;;11.60;2.65;;;;;;;12.37;52.75;93234.09;4882880;29;20026;-78
2023/12/03 05:33:35;;;;;;;14.55;2.83;;;;;;;12.42;52.36;93234.59;4886696;29;20071;-79
2023/12/03 05:36:01;;;;;;;11.15;2.30;;;;;;;12.46;52.76;93238.16;4885392;29;20138;-80
2023/12/03 05:38:26;;;;;;;9.55;2.70;;;;;;;12.52;52.76;93225.34;4886762;29;20052;-79
2023/12/03 05:40:52;;;;;;;16.48;4.05;;;;;;;12.50;52.40;93221.47;4884398;29;20043;-78
2023/12/03 05:43:18;;;;;;;16.60;4.00;;;;;;;12.60;52.47;93245.81;4886618;29;20041;-78
2023/12/03 05:45:43;;;;;;;10.45;3.00;;;;;;;12.63;52.36;93258.47;4885441;29;20444;-78
2023/12/03 05:48:09;;;;;;;15.55;3.45;;;;;;;12.57;52.34;93243.78;4886553;29;20037;-78
2023/12/03 05:50:34;;;;;;;19.92;2.90;;;;;;;12.78;52.63;93265.75;4886379;29;20055;-80
2023/12/03 05:53:00;;;;;;;14.05;3.08;;;;;;;12.31;53.24;93230.09;4887176;29;20028;-79
2023/12/03 05:55:25;;;;;;;13.50;2.70;;;;;;;12.68;53.33;93282.25;4885710;29;20544;-79
2023/12/03 05:57:50;;;;;;;30.45;6.25;;;;;;;12.13;54.59;93277.53;4884835;29;20513;-79
2023/12/03 06:00:16;;;;;;;11.23;3.58;;;;;;;12.47;53.72;93266.38;4885006;29;20409;-79
2023/12/03 06:02:42;;;;;;;24.27;5.22;;;;;;;12.69;53.62;93283.81;4883284;29;20052;-78
2023/12/03 06:05:09;;;;;;;14.18;3.05;;;;;;;12.86;53.80;93298.75;4883990;29;20044;-78
2023/12/03 06:07:34;;;;;;;13.95;2.63;;;;;;;12.97;53.54;93305.16;4883925;29;20033;-78
2023/12/03 06:10:00;;;;;;;11.48;2.92;;;;;;;13.05;53.03;93308.81;4885424;29;20046;-78
2023/12/03 06:12:25;;;;;;;11.30;3.00;;;;;;;13.04;53.21;93299.25;4883350;29;20041;-78
2023/12/03 06:14:50;;;;;;;11.57;3.03;;;;;;;13.00;53.27;93303.72;4886877;29;20072;-78
2023/12/03 06:17:16;;;;;;;15.00;3.58;;;;;;;13.04;53.76;93315.25;4886787;29;20405;-80
2023/12/03 06:19:41;;;;;;;10.00;3.00;;;;;;;13.09;53.67;93312.34;4887420;29;20107;-79
2023/12/03 06:22:07;;;;;;;16.50;3.53;;;;;;;13.06;53.81;93315.69;4883198;29;20043;-79
2023/12/03 06:24:33;;;;;;;13.25;4.07;;;;;;;13.02;53.57;93301.47;4900188;29;20505;-78
2023/12/03 06:26:58;;;;;;;17.98;3.78;;;;;;;12.66;54.73;93329.06;4882216;29;20397;-78
2023/12/03 06:29:24;;;;;;;12.80;4.65;;;;;;;11.94;57.52;93334.06;4885042;29;20123;-79
2023/12/03 06:31:49;;;;;;;10.82;3.33;;;;;;;12.26;56.32;93319.09;4887923;29;20032;-78
2023/12/03 06:34:16;;;;;;;31.98;6.43;;;;;;;12.64;56.02;93321.38;4883580;29;20558;-78
2023/12/03 06:36:45;;;;;;;17.92;5.75;;;;;;;12.78;56.18;93343.13;4885495;29;20036;-75
2023/12/03 06:39:11;;;;;;;18.92;5.22;;;;;;;12.94;55.59;93348.53;4884195;29;20509;-78
2023/12/03 06:41:36;;;;;;;21.70;5.63;;;;;;;12.82;56.12;93344.00;4888433;29;20064;-80
2023/12/03 06:44:02;;;;;;;14.60;4.25;;;;;;;13.03;55.40;93351.06;4884140;29;20076;-79
2023/12/03 06:46:27;;;;;;;12.07;3.75;;;;;;;13.04;55.71;93342.72;4885540;29;20048;-78
2023/12/03 06:48:53;;;;;;;15.43;3.42;;;;;;;13.10;55.28;93357.41;4887944;29;20673;-78
2023/12/03 06:51:19;;;;;;;16.63;3.85;;;;;;;12.99;56.55;93366.22;4885039;29;20060;-78
2023/12/03 06:53:44;;;;;;;14.40;3.33;;;;;;;12.61;58.45;93351.41;4885202;29;20047;-77
2023/12/03 06:56:11;;;;;;;18.63;6.90;;;;;;;12.68;58.61;93370.28;4887317;29;20033;-79
2023/12/03 06:58:36;;;;;;;16.88;3.88;;;;;;;12.68;59.57;93366.84;4889484;29;20028;-79
2023/12/03 07:01:02;;;;;;;38.60;12.30;;;;;;;12.48;59.70;93347.94;4888953;29;20127;-78
2023/12/03 07:03:27;;;;;;;15.93;3.80;;;;;;;12.60;59.27;93370.41;4886840;29;20077;-79
2023/12/03 07:05:54;;;;;;;19.90;8.20;;;;;;;12.63;60.40;93377.72;4889310;29;20037;-79
2023/12/03 07:08:20;;;;;;;18.30;5.53;;;;;;;12.64;60.42;93376.63;4887211;29;20752;-78
2023/12/03 07:10:45;;;;;;;19.08;6.63;;;;;;;12.55;59.88;93374.06;4886683;29;20032;-79
2023/12/03 07:13:11;;;;;;;19.35;6.15;;;;;;;12.62;61.21;93400.97;4902772;29;20024;-78
2023/12/03 07:15:36;;;;;;;18.25;6.72;;;;;;;12.57;60.39;93393.16;4888869;29;20040;-78
2023/12/03 07:18:03;;;;;;;35.80;18.20;;;;;;;12.63;60.61;93401.75;4889501;29;20036;-79
2023/12/03 07:20:28;;;;;;;28.20;13.95;;;;;;;12.45;60.63;93395.84;4887058;29;20128;-78
2023/12/03 07:22:55;;;;;;;26.33;12.85;;;;;;;12.35;61.46;93393.63;4878032;29;20068;-77
2023/12/03 07:25:24;;;;;;;18.15;5.97;;;;;;;12.28;62.14;93396.06;4878065;29;20401;-78
2023/12/03 07:27:49;;;;;;;16.17;5.15;;;;;;;12.09;63.49;93403.81;4877339;29;20065;-79
2023/12/03 07:30:15;;;;;;;13.32;5.72;;;;;;;12.27;63.17;93405.94;4875154;29;20155;-77
2023/12/03 07:32:41;;;;;;;16.77;7.15;;;;;;;12.31;62.62;93395.41;4878284;29;20041;-78
2023/12/03 07:35:07;;;;;;;25.40;5.78;;;;;;;12.37;62.87;93415.41;4876475;29;20435;-78
2023/12/03 07:37:32;;;;;;;22.08;7.85;;;;;;;12.34;62.64;93416.84;4880094;29;20032;-78
2023/12/03 07:39:57;;;;;;;17.02;6.72;;;;;;;12.39;62.39;93423.84;4878673;29;20048;-78
2023/12/03 07:42:26;;;;;;;17.92;5.35;;;;;;;12.19;63.02;93414.06;4880564;29;20548;-79
2023/12/03 07:44:51;;;;;;;12.63;4.78;;;;;;;12.24;63.33;93432.50;4875212;29;20032;-77
2023/12/03 07:47:17;;;;;;;7.82;2.50;;;;;;;12.32;62.72;93447.63;4882232;29;20853;-77
2023/12/03 07:49:43;;;;;;;10.10;3.35;;;;;;;12.27;62.42;93447.84;4891001;29;20032;-78
2023/12/03 07:52:08;;;;;;;14.25;3.15;;;;;;;11.92;63.69;93464.22;4877613;29;20033;-78
2023/12/03 07:54:34;;;;;;;10.57;3.00;;;;;;;11.82;63.83;93464.63;4878409;29;20052;-78
2023/12/03 07:56:59;;;;;;;11.52;4.07;;;;;;;11.80;64.02;93466.84;4878606;29;20485;-77
2023/12/03 07:59:25;;;;;;;14.68;5.22;;;;;;;11.43;65.39;93465.13;4875854;29;20610;-77
2023/12/03 08:01:50;;;;;;;19.75;8.88;;;;;;;11.32;66.57;93466.59;4878754;29;20069;-77
2023/12/03 08:04:16;;;;;;;20.02;9.13;;;;;;;11.35;66.64;93482.69;4877478;29;20032;-79
2023/12/03 08:06:41;;;;;;;23.80;9.52;;;;;;;11.31;67.61;93491.66;4879916;29;20047;-78
2023/12/03 08:09:07;;;;;;;12.63;6.13;;;;;;;11.07;68.42;93495.75;4873879;29;20036;-77
2023/12/03 08:11:32;;;;;;;10.95;4.07;;;;;;;11.12;67.87;93506.22;4888831;29;20528;-79
2023/12/03 08:13:58;;;;;;;12.63;4.15;;;;;;;11.12;67.56;93502.75;4882023;29;20087;-78
2023/12/03 08:16:23;;;;;;;18.08;5.28;;;;;;;11.02;68.37;93495.16;4887876;29;20025;-78
2023/12/03 08:18:49;;;;;;;8.68;4.63;;;;;;;10.47;68.81;93500.59;4885899;29;20128;-76
2023/12/03 08:21:14;;;;;;;15.25;4.95;;;;;;;10.39;69.59;93512.84;4888021;29;20043;-78
2023/12/03 08:23:41;;;;;;;12.15;4.80;;;;;;;10.16;69.05;93516.78;4884359;29;20036;-78
2023/12/03 08:26:07;;;;;;;10.88;5.90;;;;;;;10.22;69.63;93529.56;4887942;29;20036;-78
2023/12/03 08:28:33;;;;;;;10.10;6.05;;;;;;;9.82;70.79;93499.06;4885807;29;20031;-75
2023/12/03 08:31:00;;;;;;;15.27;7.15;;;;;;;9.85;71.32;93527.63;4888698;29;20043;-78
2023/12/03 08:33:26;;;;;;;18.00;7.68;;;;;;;9.92;71.42;93527.16;4884948;29;20103;-80
2023/12/03 08:35:51;;;;;;;14.00;8.63;;;;;;;9.64;71.40;93518.75;4898933;29;20037;-78
2023/12/03 08:38:17;;;;;;;12.43;7.05;;;;;;;9.70;70.27;93518.28;4884604;29;20072;-78
2023/12/03 08:40:42;;;;;;;14.52;8.75;;;;;;;9.63;70.80;93531.25;4884594;29;20826;-77
2023/12/03 08:43:08;;;;;;;12.55;8.38;;;;;;;9.58;70.55;93539.38;4894049;29;20104;-78
2023/12/03 08:45:34;;;;;;;12.90;8.98;;;;;;;9.62;70.17;93539.53;4918003;29;20068;-79
2023/12/03 08:48:00;;;;;;;12.48;9.15;;;;;;;9.41;70.74;93539.38;4906017;29;20072;-79
2023/12/03 08:50:28;;;;;;;12.23;8.10;;;;;;;9.40;69.59;93527.97;4894700;29;20139;-80
2023/12/03 08:52:54;;;;;;;11.82;7.38;;;;;;;9.05;69.12;93544.91;4892219;29;20461;-80
2023/12/03 08:55:20;;;;;;;12.82;6.28;;;;;;;8.65;67.55;93532.81;4896140;29;20463;-79
2023/12/03 08:57:45;;;;;;;10.10;7.65;;;;;;;8.25;67.54;93558.50;4898153;29;20047;-79
2023/12/03 09:00:12;;;;;;;10.00;7.10;;;;;;;7.77;71.12;93551.22;4893581;29;20135;-79
2023/12/03 09:02:39;;;;;;;9.82;7.70;;;;;;;7.83;69.66;93559.81;4896332;29;20063;-79
2023/12/03 09:05:06;;;;;;;14.55;9.05;;;;;;;7.76;69.72;93562.09;4897134;29;20039;-79
2023/12/03 09:07:31;;;;;;;12.18;9.20;;;;;;;7.19;71.28;93573.13;4888244;29;20051;-79
2023/12/03 09:09:57;;;;;;;14.55;10.23;;;;;;;7.01;71.09;93525.66;4885135;29;20047;-79
2023/12/03 09:12:23;;;;;;;12.70;9.60;;;;;;;7.30;69.66;93549.88;4881124;29;20678;-78
2023/12/03 09:14:49;;;;;;;17.38;11.23;;;;;;;7.24;69.90;93562.44;4875432;29;20240;-78
2023/12/03 09:17:14;;;;;;;16.30;11.48;;;;;;;7.18;70.13;93576.88;4882947;29;20045;-79
2023/12/03 09:19:40;;;;;;;16.92;12.00;;;;;;;7.35;70.16;93592.09;4886802;29;20266;-79
2023/12/03 09:22:06;;;;;;;15.90;9.80;;;;;;;7.36;70.43;93601.59;4884103;29;20033;-76
2023/12/03 09:24:31;;;;;;;12.15;8.77;;;;;;;7.13;70.09;93570.91;4887554;29;20044;-79
2023/12/03 09:26:57;;;;;;;13.43;8.20;;;;;;;7.37;69.00;93595.25;4884009;29;20926;-80
2023/12/03 09:29:22;;;;;;;11.43;8.65;;;;;;;7.50;68.75;93599.69;4887695;29;20058;-79
2023/12/03 09:31:47;;;;;;;30.27;12.27;;;;;;;7.19;69.96;93588.22;4884596;29;20088;-78
2023/12/03 09:34:13;;;;;;;20.75;12.68;;;;;;;7.33;70.30;93602.22;4884240;29;20020;-78
2023/12/03 09:36:39;;;;;;;22.65;12.50;;;;;;;7.29;70.74;93602.00;4882681;29;20043;-78
2023/12/03 09:39:04;;;;;;;11.48;8.35;;;;;;;7.34;68.82;93601.09;4885792;29;20051;-79
2023/12/03 09:41:33;;;;;;;15.00;9.20;;;;;;;7.02;70.89;93611.84;4885390;29;20044;-80
2023/12/03 09:44:01;;;;;;;8.90;6.22;;;;;;;6.91;69.54;93571.59;4886069;29;20165;-79
2023/12/03 09:46:32;;;;;;;9.50;7.22;;;;;;;6.93;69.72;93610.97;4902685;29;20082;-79
2023/12/03 09:49:00;;;;;;;11.65;8.45;;;;;;;6.75;68.91;93600.19;4882497;29;20035;-79
2023/12/03 09:51:27;;;;;;;13.27;10.40;;;;;;;6.63;70.45;93617.63;4882460;29;20044;-78
2023/12/03 09:53:57;;;;;;;15.00;10.40;;;;;;;6.71;71.20;93601.84;4877634;29;20401;-80
2023/12/03 09:56:25;;;;;;;12.63;9.70;;;;;;;6.50;70.64;93613.09;4884615;29;20116;-79
2023/12/03 09:58:51;;;;;;;12.55;9.82;;;;;;;6.47;71.63;93618.97;4897815;29;20036;-77
2023/12/03 10:01:18;;;;;;;13.13;8.02;;;;;;;6.39;72.02;93615.94;4887811;29;20058;-79
2023/12/03 10:03:44;;;;;;;12.82;8.50;;;;;;;6.40;71.15;93635.22;4892858;29;20069;-79
2023/12/03 10:06:11;;;;;;;14.70;8.63;;;;;;;6.16;71.68;93631.91;4895488;29;20048;-78
2023/12/03 10:08:41;;;;;;;12.38;8.95;;;;;;;6.38;70.73;93645.25;4885941;29;20037;-79
2023/12/03 10:11:13;;;;;;;27.27;18.02;;;;;;;6.30;69.49;93632.75;4883351;29;20144;-79
2023/12/03 10:13:39;;;;;;;12.25;8.57;;;;;;;5.91;70.02;93618.03;4884932;29;20065;-80
2023/12/03 10:16:10;;;;;;;8.80;7.55;;;;;;;5.87;70.77;93627.56;4886444;29;20036;-79
2023/12/03 10:18:36;;;;;;;9.55;6.63;;;;;;;5.88;71.33;93660.81;4883112;29;20056;-79
2023/12/03 10:21:07;;;;;;;12.48;8.82;;;;;;;5.62;72.83;93654.34;4885139;29;20508;-80
2023/12/03 10:23:33;;;;;;;8.35;7.53;;;;;;;5.69;72.95;93649.50;4891176;29;20491;-80
2023/12/03 10:26:12;;;;;;;10.50;7.40;;;;;;;5.55;72.12;93638.09;4891303;29;20032;-79
2023/12/03 10:28:39;;;;;;;9.23;6.80;;;;;;;5.49;72.10;93647.13;4891827;29;20502;-78
2023/12/03 10:31:10;;;;;;;8.63;6.53;;;;;;;5.53;73.33;93662.09;4897997;29;20529;-79
2023/12/03 10:33:37;;;;;;;9.43;6.53;;;;;;;5.56;73.00;93658.13;4889102;29;20127;-79
2023/12/03 10:36:03;;;;;;;7.65;5.45;;;;;;;5.13;71.53;93650.25;4883304;29;20100;-79
2023/12/03 10:38:39;;;;;;;8.20;5.90;;;;;;;5.23;72.65;93661.75;4888246;29;20048;-77
2023/12/03 10:41:10;;;;;;;8.23;6.10;;;;;;;5.06;73.27;93662.97;4888377;29;20040;-78
2023/12/03 10:43:41;;;;;;;7.57;5.80;;;;;;;5.01;72.33;93668.31;4888347;29;20025;-79
2023/12/03 10:46:13;;;;;;;8.00;6.18;;;;;;;4.99;73.31;93662.53;4889385;29;20039;-79
2023/12/03 10:48:39;;;;;;;9.50;6.68;;;;;;;5.04;73.61;93675.66;4886162;29;20163;-78
2023/12/03 10:51:10;;;;;;;8.27;6.28;;;;;;;5.07;71.61;93684.84;4889240;29;20164;-78
2023/12/03 10:53:37;;;;;;;11.40;7.78;;;;;;;4.91;72.22;93672.91;4902465;29;21163;-78
2023/12/03 10:56:04;;;;;;;12.23;7.72;;;;;;;4.64;73.43;93668.19;4895795;29;20063;-78
2023/12/03 10:58:33;;;;;;;9.40;7.00;;;;;;;4.56;73.41;93676.69;4896896;29;20460;-77
2023/12/03 11:01:07;;;;;;;10.18;8.05;;;;;;;4.63;73.92;93671.88;4909355;29;20076;-81
2023/12/03 11:03:56;;;;;;;8.65;7.40;;;;;;;4.77;73.23;93680.69;4893743;29;20439;-77
2023/12/03 11:06:27;;;;;;;13.07;8.23;;;;;;;4.72;73.20;93680.75;4891126;29;20059;-80
2023/12/03 11:08:55;;;;;;;15.00;9.30;;;;;;;4.69;73.03;93665.50;4886430;29;20586;-79
2023/12/03 11:11:21;;;;;;;11.65;8.88;;;;;;;4.80;73.26;93666.97;4886827;29;20048;-80
2023/12/03 11:13:56;;;;;;;16.77;10.77;;;;;;;4.91;73.62;93680.81;4888162;29;20036;-80
2023/12/03 11:16:23;;;;;;;13.48;10.02;;;;;;;5.01;72.44;93673.59;4890046;29;20020;-78
2023/12/03 11:19:05;;;;;;;13.35;9.75;;;;;;;5.18;72.78;93675.78;4915209;29;20578;-79
2023/12/03 11:22:16;;;;;;;11.73;8.32;;;;;;;4.99;71.45;93667.03;4894032;29;20272;-79